Elizabeth Anne — WDI5309 — position and weather

sailwx.info

Track history (hours):
 
Tides and Currents Weather Stations Pressure Air Temp Water Temp Dewpoint Dewpoint Depression Visibility Wind Speed Wind Dir Waves Ship Positions

Elizabeth Anne

Owner: Vane Line Bunkering, Inc., Philadelphia, PA. More information available from US FCC via Universal Licensing System and Coast Guard Vessel Documentation Center.

Last reported at 2018-Jun-16 18:59 UTC. Time now 2018-Jun-17 22:15 UTC.
Position N 40°47' W 073°60'.

; draft 5 m.

Type: Tug. MMSI: 369008000.

Date/timePositionNaut miles runAvg speedWind from/ knotsBaromVisibWave heightAir tempDewpointWater temp
2018-Jun-16 18:59N 40°47' W 073°60'3 6.9
2018-Jun-16 18:30N 40°44' W 074°01'4 7.5
2018-Jun-16 18:00N 40°40' W 074°03'4 7.2
2018-Jun-16 17:30N 40°39' W 074°07'4 7.2
2018-Jun-16 17:00N 40°38' W 074°12'0 0.0
2018-Jun-16 11:38N 40°38' W 074°12'1 7.3
2018-Jun-16 11:27N 40°39' W 074°10'4 8.8
2018-Jun-16 11:00N 40°39' W 074°05'3 6.9
2018-Jun-16 10:30N 40°40' W 074°00'0 0.0
2018-Jun-16 10:00N 40°40' W 074°00'0 0.0
2018-Jun-16 09:30N 40°40' W 074°00'0 0.0
2018-Jun-16 09:00N 40°40' W 074°00'0 0.0
2018-Jun-16 08:30N 40°40' W 074°00'0 0.0
2018-Jun-16 08:00N 40°40' W 074°00'0 0.0
2018-Jun-16 07:30N 40°40' W 074°00'0 0.0
2018-Jun-16 07:00N 40°40' W 074°00'0 0.0
2018-Jun-16 06:30N 40°40' W 074°00'0 0.0
2018-Jun-16 06:00N 40°40' W 074°00'0 0.0
2018-Jun-16 05:30N 40°40' W 074°00'0 0.0
2018-Jun-16 05:00N 40°40' W 074°00'0 0.0
2018-Jun-16 04:30N 40°40' W 074°00'0 0.0
2018-Jun-16 04:00N 40°40' W 074°00'0 0.0
2018-Jun-16 03:30N 40°40' W 074°00'0 0.0
2018-Jun-16 03:00N 40°40' W 074°00'0 0.0
2018-Jun-16 02:30N 40°40' W 074°00'0 0.0
2018-Jun-16 02:00N 40°40' W 074°00'0 0.0
2018-Jun-16 01:30N 40°40' W 074°00'0 0.0
2018-Jun-16 01:00N 40°40' W 074°00'0 0.0
2018-Jun-16 00:30N 40°40' W 074°00'0 0.0
2018-Jun-16 00:00N 40°40' W 074°00'0 0.0
2018-Jun-15 23:30N 40°40' W 074°00'0 0.0
2018-Jun-15 23:00N 40°40' W 074°00'0 0.0
2018-Jun-15 22:30N 40°40' W 074°00'0 0.0
2018-Jun-15 22:00N 40°40' W 074°00'0 0.0
2018-Jun-15 21:30N 40°40' W 074°00'0 0.0
2018-Jun-15 21:00N 40°40' W 074°00'0 0.0
2018-Jun-15 20:30N 40°40' W 074°00'0 0.0
2018-Jun-15 20:00N 40°40' W 074°00'0 0.0
2018-Jun-15 19:30N 40°40' W 074°00'0 0.0
2018-Jun-15 19:00N 40°40' W 074°00'0 0.0
2018-Jun-15 18:30N 40°40' W 074°00'0 0.0
2018-Jun-15 18:00N 40°40' W 074°00'0 0.0
2018-Jun-15 17:30N 40°40' W 074°00'0 0.0
2018-Jun-15 17:00N 40°40' W 074°00'0 0.0
2018-Jun-15 16:30N 40°40' W 074°00'0 0.4
2018-Jun-15 16:01N 40°40' W 074°00'1 1.7
2018-Jun-15 15:30N 40°40' W 074°01'1 2.3
2018-Jun-15 15:00N 40°40' W 074°03'1 1.9
2018-Jun-15 14:31N 40°40' W 074°03'1 1.9
2018-Jun-15 14:00N 40°40' W 074°04'0 0.0
2018-Jun-15 13:30N 40°40' W 074°04'0 0.0
2018-Jun-15 13:00N 40°40' W 074°04'0 0.0
2018-Jun-15 12:30N 40°40' W 074°04'0 0.0
2018-Jun-15 12:00N 40°40' W 074°04'0 0.0
2018-Jun-15 11:30N 40°40' W 074°04'0 0.3
2018-Jun-15 11:00N 40°40' W 074°04'0 0.0
2018-Jun-15 10:30N 40°40' W 074°04'0 0.0
2018-Jun-15 10:00N 40°40' W 074°04'0 0.0
2018-Jun-15 09:30N 40°40' W 074°04'0 0.0
2018-Jun-15 09:00N 40°40' W 074°04'0 0.0
2018-Jun-15 08:30N 40°40' W 074°04'0 0.0
2018-Jun-15 08:00N 40°40' W 074°04'0 0.0
2018-Jun-15 07:30N 40°40' W 074°04'0 0.0
2018-Jun-15 07:00N 40°40' W 074°04'0 0.0
2018-Jun-15 06:30N 40°40' W 074°04'0 0.0
2018-Jun-15 06:00N 40°40' W 074°04'0 0.0
2018-Jun-15 05:30N 40°40' W 074°04'0 0.0
2018-Jun-15 05:00N 40°40' W 074°04'0 0.0
2018-Jun-15 04:30N 40°40' W 074°04'0 0.0
2018-Jun-15 04:00N 40°40' W 074°04'0 0.0
2018-Jun-15 03:30N 40°40' W 074°04'0 0.0
2018-Jun-15 03:00N 40°40' W 074°04'0 0.0
2018-Jun-15 02:30N 40°40' W 074°04'0 0.0
2018-Jun-15 02:00N 40°40' W 074°04'0 0.0
2018-Jun-15 01:30N 40°40' W 074°04'0 0.0
2018-Jun-15 01:00N 40°40' W 074°04'0 0.0
2018-Jun-15 00:30N 40°40' W 074°04'0 0.0
2018-Jun-15 00:00N 40°40' W 074°04'0 0.0
2018-Jun-14 23:30N 40°40' W 074°04'0 0.0
2018-Jun-14 23:00N 40°40' W 074°04'0 0.0
2018-Jun-14 22:30N 40°40' W 074°04'0 0.0
2018-Jun-14 22:00N 40°40' W 074°04'0 0.0
2018-Jun-14 21:30N 40°40' W 074°04'0 0.0
2018-Jun-14 21:00N 40°40' W 074°04'0 0.0
2018-Jun-14 20:30N 40°40' W 074°04'0 0.0
2018-Jun-14 20:00N 40°40' W 074°04'0 0.0
2018-Jun-14 19:30N 40°40' W 074°04'0 0.0
2018-Jun-14 19:00N 40°40' W 074°04'0 0.0
2018-Jun-14 18:30N 40°40' W 074°04'0 0.0
2018-Jun-14 18:00N 40°40' W 074°04'0 0.0
2018-Jun-14 17:30N 40°40' W 074°04'0 0.0
2018-Jun-14 17:00N 40°40' W 074°04'0 0.0
2018-Jun-14 16:30N 40°40' W 074°04'0 0.0
2018-Jun-14 16:00N 40°40' W 074°04'0 0.0
2018-Jun-14 15:30N 40°40' W 074°04'0 0.0
2018-Jun-14 15:00N 40°40' W 074°04'0 0.3
2018-Jun-14 14:30N 40°40' W 074°04'0 0.0
2018-Jun-14 14:00N 40°40' W 074°04'0 0.0
2018-Jun-14 13:30N 40°40' W 074°04'0 0.0
2018-Jun-14 13:00N 40°40' W 074°04'0 0.0
2018-Jun-14 12:30N 40°40' W 074°04'0 0.0
2018-Jun-14 12:00N 40°40' W 074°04'0 0.1
2018-Jun-14 11:30N 40°40' W 074°04'0 0.2
2018-Jun-14 11:00N 40°40' W 074°04'0 0.2
2018-Jun-14 10:30N 40°40' W 074°04'1 1.7
2018-Jun-14 10:00N 40°39' W 074°05'2 3.2
2018-Jun-14 09:30N 40°39' W 074°07'1 1.3
2018-Jun-14 09:00N 40°39' W 074°06'0 0.0
2018-Jun-14 08:30N 40°39' W 074°06'0 0.0
2018-Jun-14 08:00N 40°39' W 074°06'0 0.0
2018-Jun-14 07:30N 40°39' W 074°06'0 0.0
2018-Jun-14 07:00N 40°39' W 074°06'0 0.3
2018-Jun-14 06:31N 40°39' W 074°06'1 1.1
2018-Jun-14 06:00N 40°39' W 074°05'0 0.8
2018-Jun-14 05:30N 40°39' W 074°06'0 0.0
2018-Jun-14 04:03N 40°39' W 074°06'0 0.0
2018-Jun-14 03:42N 40°39' W 074°06'0 0.0
2018-Jun-14 03:19N 40°39' W 074°06'0 0.0
2018-Jun-14 03:00N 40°39' W 074°06'0 0.0
2018-Jun-14 01:09N 40°39' W 074°06'0 0.0
2018-Jun-14 00:52N 40°39' W 074°06'1 1.9
2018-Jun-14 00:30N 40°39' W 074°07'0 0.8
2018-Jun-14 00:00N 40°39' W 074°07'2 3.9
2018-Jun-13 23:30N 40°40' W 074°08'1 1.5
2018-Jun-13 23:00N 40°41' W 074°09'0 0.1
2018-Jun-13 22:30N 40°41' W 074°09'0 0.0
2018-Jun-13 22:00N 40°41' W 074°09'0 0.0
2018-Jun-13 21:28N 40°41' W 074°09'0 0.0
2018-Jun-13 21:00N 40°41' W 074°09'0 0.0
2018-Jun-13 20:30N 40°41' W 074°09'0 0.0
2018-Jun-13 20:00N 40°41' W 074°09'0 0.0
2018-Jun-13 19:29N 40°41' W 074°09'0 0.0
2018-Jun-13 19:00N 40°41' W 074°09'0 0.0
2018-Jun-13 18:30N 40°41' W 074°09'0 0.0
2018-Jun-13 18:00N 40°41' W 074°09'1 2.1
2018-Jun-13 17:31N 40°40' W 074°08'3 4.3
2018-Jun-13 16:55N 40°39' W 074°11'0 0.0
2018-Jun-13 16:30N 40°39' W 074°11'3 5.1
2018-Jun-13 16:00N 40°39' W 074°08'1 2.4
2018-Jun-13 15:25N 40°39' W 074°06'0 1.1
2018-Jun-13 15:00N 40°39' W 074°05'0 0.8
2018-Jun-13 14:30N 40°39' W 074°06'0 0.0
2018-Jun-13 14:00N 40°39' W 074°06'1 1.6
2018-Jun-13 13:31N 40°39' W 074°05'1 0.9
2018-Jun-13 12:37N 40°39' W 074°06'0 1.4
2018-Jun-13 12:30N 40°39' W 074°06'4 8.5
2018-Jun-13 12:00N 40°40' W 074°00'0 0.3
2018-Jun-13 11:30N 40°40' W 074°01'0 0.0
2018-Jun-13 11:00N 40°40' W 074°00'0 0.1
2018-Jun-13 10:30N 40°40' W 074°00'0 0.0
2018-Jun-13 10:00N 40°40' W 074°00'0 0.0
2018-Jun-13 09:30N 40°40' W 074°00'0 0.0
2018-Jun-13 09:00N 40°40' W 074°00'0 0.0
2018-Jun-13 08:30N 40°40' W 074°00'0 0.0
2018-Jun-13 08:00N 40°40' W 074°00'0 0.0
2018-Jun-13 07:30N 40°40' W 074°00'0 0.0
2018-Jun-13 07:00N 40°40' W 074°00'0 0.0
2018-Jun-13 06:30N 40°40' W 074°00'0 0.0
2018-Jun-13 06:00N 40°40' W 074°00'1 2.9
2018-Jun-13 05:30N 40°41' W 074°00'0 0.1
2018-Jun-13 05:00N 40°41' W 074°00'0 0.0
2018-Jun-13 04:30N 40°41' W 074°00'0 0.0
2018-Jun-13 04:01N 40°41' W 074°00'1 2.7
2018-Jun-13 03:30N 40°40' W 074°00'0 0.0
2018-Jun-13 03:00N 40°40' W 074°00'0 0.0
2018-Jun-13 02:30N 40°40' W 074°00'0 0.0
2018-Jun-13 02:00N 40°40' W 074°00'0 0.0
2018-Jun-13 01:30N 40°40' W 074°00'0 0.0
2018-Jun-13 01:00N 40°40' W 074°00'0 0.0
2018-Jun-13 00:30N 40°40' W 074°00'2 3.7
2018-Jun-13 00:00N 40°39' W 074°02'3 6.6
2018-Jun-12 23:30N 40°39' W 074°06'0 0.1
2018-Jun-12 23:00N 40°39' W 074°07'1 2.5
2018-Jun-12 22:31N 40°39' W 074°05'4 7.5
2018-Jun-12 22:00N 40°40' W 074°00'0 0.0
2018-Jun-12 21:30N 40°40' W 074°00'0 0.0
2018-Jun-12 21:00N 40°40' W 074°00'0 0.0
2018-Jun-12 20:30N 40°40' W 074°00'0 0.0
2018-Jun-12 20:00N 40°40' W 074°00'0 0.0
2018-Jun-12 19:30N 40°40' W 074°00'0 0.0
2018-Jun-12 19:01N 40°40' W 074°00'4 7.8
2018-Jun-12 18:31N 40°39' W 074°05'1 2.3
2018-Jun-12 18:00N 40°39' W 074°07'2 3.3
2018-Jun-12 17:30N 40°39' W 074°04'4 7.5
2018-Jun-12 17:01N 40°41' W 074°00'0 0.8
2018-Jun-12 16:30N 40°41' W 074°01'1 2.3
2018-Jun-12 16:00N 40°40' W 074°00'0 0.0
2018-Jun-12 15:30N 40°40' W 074°00'0 0.0
2018-Jun-12 15:00N 40°40' W 074°00'0 0.0
2018-Jun-12 14:30N 40°40' W 074°00'0 0.0
2018-Jun-12 14:00N 40°40' W 074°00'0 0.1
2018-Jun-12 13:31N 40°40' W 074°01'3 6.9
2018-Jun-12 13:01N 40°40' W 074°05'0 0.1
2018-Jun-12 12:30N 40°40' W 074°05'0 0.0
2018-Jun-12 12:00N 40°40' W 074°05'0 0.0
2018-Jun-12 11:30N 40°40' W 074°05'0 0.0
2018-Jun-12 10:59N 40°40' W 074°05'0 0.0
2018-Jun-12 10:28N 40°40' W 074°05'0 0.0
2018-Jun-12 09:58N 40°40' W 074°05'0 0.0
2018-Jun-12 09:25N 40°40' W 074°05'0 0.3
2018-Jun-12 09:00N 40°40' W 074°05'1 1.3
2018-Jun-12 08:30N 40°40' W 074°04'0 0.0
2018-Jun-12 08:00N 40°40' W 074°04'1 2.1
2018-Jun-12 07:30N 40°39' W 074°05'2 3.5
2018-Jun-12 07:00N 40°39' W 074°07'0 1.0
2018-Jun-12 06:30N 40°39' W 074°06'2 2.9
2018-Jun-12 05:58N 40°39' W 074°04'1 1.4
2018-Jun-12 05:30N 40°39' W 074°04'1 2.1
2018-Jun-12 04:53N 40°40' W 074°03'0 0.0
2018-Jun-12 04:29N 40°40' W 074°03'0 0.0
2018-Jun-12 04:00N 40°40' W 074°03'2 4.1
2018-Jun-12 03:29N 40°40' W 074°00'0 0.0
2018-Jun-12 02:50N 40°40' W 074°00'0 0.0
2018-Jun-12 02:24N 40°40' W 074°00'0 0.0
2018-Jun-12 02:00N 40°40' W 074°00'1 1.2
2018-Jun-12 01:30N 40°40' W 074°01'2 3.5
2018-Jun-12 01:00N 40°41' W 074°00'2 4.3
2018-Jun-12 00:30N 40°41' W 074°03'0 0.0
2018-Jun-12 00:00N 40°41' W 074°03'0 0.0
2018-Jun-11 23:30N 40°41' W 074°03'0 0.0
2018-Jun-11 22:59N 40°41' W 074°03'2 4.7
2018-Jun-11 22:30N 40°41' W 074°00'1 2.8
2018-Jun-11 22:00N 40°40' W 074°00'0 0.8
2018-Jun-11 21:29N 40°40' W 074°01'4 7.2
2018-Jun-11 20:59N 40°39' W 074°05'3 5.8
2018-Jun-11 20:30N 40°39' W 074°09'2 4.0
2018-Jun-11 19:59N 40°41' W 074°09'0 0.0
2018-Jun-11 19:22N 40°41' W 074°09'0 0.0
2018-Jun-11 18:45N 40°41' W 074°09'0 0.0
2018-Jun-11 18:28N 40°41' W 074°09'0 0.0
2018-Jun-11 18:00N 40°41' W 074°09'0 0.0
2018-Jun-11 17:21N 40°41' W 074°09'1 2.3
2018-Jun-11 17:00N 40°40' W 074°08'2 3.8
2018-Jun-11 16:25N 40°39' W 074°06'3 6.4
2018-Jun-11 15:58N 40°40' W 074°02'2 3.5
2018-Jun-11 15:30N 40°41' W 074°01'0 0.0
2018-Jun-11 15:00N 40°41' W 074°01'0 0.0
2018-Jun-11 14:30N 40°41' W 074°01'0 0.0
2018-Jun-11 14:00N 40°41' W 074°01'0 0.0
2018-Jun-11 13:30N 40°41' W 074°01'0 0.0
2018-Jun-11 12:59N 40°41' W 074°01'0 0.0
2018-Jun-11 12:30N 40°41' W 074°01'0 0.8
2018-Jun-11 12:00N 40°41' W 074°01'1 1.9
2018-Jun-11 11:30N 40°40' W 074°00'0 0.0
2018-Jun-11 11:00N 40°40' W 074°00'0 0.0
2018-Jun-11 10:30N 40°40' W 074°00'0 0.0
2018-Jun-11 10:00N 40°40' W 074°00'0 0.0
2018-Jun-11 09:30N 40°40' W 074°00'0 0.1
2018-Jun-11 08:59N 40°40' W 074°00'0 0.0
2018-Jun-11 08:30N 40°40' W 074°00'0 0.0
2018-Jun-11 08:00N 40°40' W 074°00'1 1.2
2018-Jun-11 07:30N 40°40' W 074°01'1 2.9
2018-Jun-11 07:01N 40°40' W 074°03'1 2.6
2018-Jun-11 06:30N 40°40' W 074°05'0 0.0
2018-Jun-11 06:00N 40°40' W 074°05'3 5.2
2018-Jun-11 05:31N 40°40' W 074°01'1 1.5
2018-Jun-11 05:00N 40°40' W 074°00'0 0.0
2018-Jun-11 04:30N 40°40' W 074°00'0 0.0
2018-Jun-11 04:00N 40°40' W 074°00'0 0.0
2018-Jun-11 03:30N 40°40' W 074°00'0 0.0
2018-Jun-11 03:00N 40°40' W 074°00'0 0.0
2018-Jun-11 02:30N 40°40' W 074°00'0 0.0
2018-Jun-11 02:00N 40°40' W 074°00'0 0.0
2018-Jun-11 01:30N 40°40' W 074°00'0 0.0
2018-Jun-11 01:00N 40°40' W 074°00'0 0.0
2018-Jun-11 00:30N 40°40' W 074°00'0 0.0
2018-Jun-11 00:00N 40°40' W 074°00'0 0.0
2018-Jun-10 23:30N 40°40' W 074°00'0 0.0
2018-Jun-10 23:00N 40°40' W 074°00'0 0.0
2018-Jun-10 22:30N 40°40' W 074°00'0 0.0
2018-Jun-10 22:00N 40°40' W 074°00'0 0.0
2018-Jun-10 21:30N 40°40' W 074°00'0 0.0
2018-Jun-10 21:00N 40°40' W 074°00'1 3.0
2018-Jun-10 20:31N 40°41' W 074°00'0 0.2
2018-Jun-10 20:00N 40°41' W 074°00'4 7.3
2018-Jun-10 19:31N 40°39' W 074°04'1 2.6
2018-Jun-10 18:58N 40°39' W 074°06'2 4.9
2018-Jun-10 18:31N 40°40' W 074°03'0 0.1
2018-Jun-10 18:00N 40°40' W 074°03'1 1.8
2018-Jun-10 17:30N 40°40' W 074°03'1 2.9
2018-Jun-10 17:00N 40°41' W 074°01'0 0.0
2018-Jun-10 16:30N 40°41' W 074°01'0 0.0
2018-Jun-10 16:00N 40°41' W 074°01'0 0.0
2018-Jun-10 15:30N 40°41' W 074°01'0 0.0
2018-Jun-10 15:00N 40°41' W 074°01'0 0.0
2018-Jun-10 14:00N 40°41' W 074°01'0 0.0
2018-Jun-10 13:30N 40°41' W 074°01'0 0.0
2018-Jun-10 13:00N 40°41' W 074°01'0 0.0
2018-Jun-10 12:30N 40°41' W 074°01'0 0.0
2018-Jun-10 12:00N 40°41' W 074°01'0 0.0
2018-Jun-10 11:30N 40°41' W 074°01'0 0.2
2018-Jun-10 11:00N 40°41' W 074°01'2 3.8
2018-Jun-10 10:30N 40°40' W 074°03'1 2.1
2018-Jun-10 10:00N 40°40' W 074°04'0 0.0
2018-Jun-10 09:30N 40°40' W 074°04'0 0.0
2018-Jun-10 09:00N 40°40' W 074°04'0 0.0
2018-Jun-10 08:30N 40°40' W 074°04'0 0.0
2018-Jun-10 08:00N 40°40' W 074°04'0 0.0
2018-Jun-10 07:30N 40°40' W 074°04'0 0.0
2018-Jun-10 07:00N 40°40' W 074°04'0 0.0
2018-Jun-10 06:30N 40°40' W 074°04'0 0.0
2018-Jun-10 06:00N 40°40' W 074°04'0 0.0
2018-Jun-10 05:30N 40°40' W 074°04'0 0.0
2018-Jun-10 05:00N 40°40' W 074°04'0 0.0
2018-Jun-10 04:30N 40°40' W 074°04'0 0.0
2018-Jun-10 04:00N 40°40' W 074°04'1 1.3
2018-Jun-10 03:30N 40°39' W 074°04'2 3.6
2018-Jun-10 03:00N 40°39' W 074°07'1 1.2
2018-Jun-10 02:30N 40°39' W 074°06'0 0.0
2018-Jun-10 02:00N 40°39' W 074°06'0 0.0
2018-Jun-10 01:30N 40°39' W 074°06'0 0.0
2018-Jun-10 01:00N 40°39' W 074°06'0 0.0
2018-Jun-10 00:30N 40°39' W 074°06'0 0.0
2018-Jun-09 23:27N 40°39' W 074°06'0 0.0
2018-Jun-09 22:57N 40°39' W 074°06'0 0.0
2018-Jun-09 22:28N 40°39' W 074°06'0 0.0
2018-Jun-09 22:00N 40°39' W 074°06'0 0.0
2018-Jun-09 21:30N 40°39' W 074°06'1 1.3
2018-Jun-09 21:00N 40°39' W 074°07'1 1.9
2018-Jun-09 20:30N 40°39' W 074°05'1 2.6
2018-Jun-09 20:00N 40°40' W 074°04'0 0.0
2018-Jun-09 19:30N 40°40' W 074°04'0 0.0
2018-Jun-09 19:00N 40°40' W 074°04'0 0.0
2018-Jun-09 18:30N 40°40' W 074°04'0 0.0
2018-Jun-09 18:00N 40°40' W 074°04'0 0.0
2018-Jun-09 17:30N 40°40' W 074°04'0 0.0
2018-Jun-09 17:00N 40°40' W 074°04'0 0.2
2018-Jun-09 16:30N 40°40' W 074°04'0 0.0
2018-Jun-09 16:00N 40°40' W 074°04'0 0.0
2018-Jun-09 15:30N 40°40' W 074°04'0 0.0
2018-Jun-09 14:30N 40°40' W 074°04'0 0.0
2018-Jun-09 14:00N 40°40' W 074°04'0 0.0
2018-Jun-09 13:30N 40°40' W 074°04'0 0.0
2018-Jun-09 13:00N 40°40' W 074°04'0 0.0
2018-Jun-09 12:30N 40°40' W 074°04'0 0.0
2018-Jun-09 12:00N 40°40' W 074°04'1 2.0
2018-Jun-09 11:30N 40°40' W 074°03'0 0.4
2018-Jun-09 11:00N 40°40' W 074°03'0 0.1
2018-Jun-09 10:30N 40°40' W 074°03'0 0.1
2018-Jun-09 10:00N 40°40' W 074°03'0 0.2
2018-Jun-09 09:30N 40°41' W 074°03'0 0.0
2018-Jun-09 09:00N 40°41' W 074°03'0 0.0
2018-Jun-09 08:30N 40°41' W 074°03'0 0.1
2018-Jun-09 08:00N 40°40' W 074°03'3 5.7
2018-Jun-09 07:30N 40°39' W 074°06'0 0.2
2018-Jun-09 07:00N 40°39' W 074°06'2 3.9
2018-Jun-09 06:29N 40°39' W 074°09'2 4.0
2018-Jun-09 06:00N 40°41' W 074°10'0 0.0
2018-Jun-09 05:30N 40°41' W 074°10'0 0.0
2018-Jun-09 05:00N 40°41' W 074°10'0 0.0
2018-Jun-09 04:30N 40°41' W 074°10'0 0.2
2018-Jun-09 03:59N 40°41' W 074°09'1 1.8
2018-Jun-09 03:30N 40°41' W 074°09'0 0.1
2018-Jun-09 03:00N 40°41' W 074°09'0 0.0
2018-Jun-09 02:30N 40°41' W 074°09'0 0.4
2018-Jun-09 02:00N 40°40' W 074°08'3 5.2
2018-Jun-09 01:30N 40°39' W 074°05'0 0.6
2018-Jun-09 01:00N 40°39' W 074°05'3 6.1
2018-Jun-09 00:30N 40°39' W 074°09'2 3.0
2018-Jun-09 00:00N 40°40' W 074°08'0 0.2
2018-Jun-08 23:30N 40°40' W 074°08'1 2.9
2018-Jun-08 23:00N 40°39' W 074°09'3 5.3
2018-Jun-08 22:30N 40°39' W 074°05'0 0.0
2018-Jun-08 22:00N 40°39' W 074°05'0 0.0
2018-Jun-08 21:30N 40°39' W 074°05'0 0.0
2018-Jun-08 21:00N 40°39' W 074°05'0 0.0
2018-Jun-08 20:30N 40°39' W 074°05'1 1.5
2018-Jun-08 20:00N 40°39' W 074°06'2 3.8
2018-Jun-08 19:30N 40°39' W 074°04'3 5.6
2018-Jun-08 19:01N 40°40' W 074°01'0 0.1
2018-Jun-08 18:30N 40°40' W 074°00'0 0.6
2018-Jun-08 18:01N 40°40' W 074°00'2 4.3
2018-Jun-08 17:30N 40°40' W 074°03'0 0.6
2018-Jun-08 17:00N 40°40' W 074°03'1 1.7
2018-Jun-08 16:30N 40°40' W 074°04'0 0.0
2018-Jun-08 16:00N 40°40' W 074°04'0 0.0
2018-Jun-08 15:30N 40°40' W 074°04'0 0.0
2018-Jun-08 15:00N 40°40' W 074°04'0 0.0
2018-Jun-08 14:30N 40°40' W 074°04'0 0.0
2018-Jun-08 14:00N 40°40' W 074°04'0 0.0
2018-Jun-08 13:30N 40°40' W 074°04'0 0.0
2018-Jun-08 13:00N 40°40' W 074°04'0 0.0
2018-Jun-08 12:30N 40°40' W 074°04'0 0.0
2018-Jun-08 12:00N 40°40' W 074°04'0 0.0
2018-Jun-08 11:30N 40°40' W 074°04'2 3.6
2018-Jun-08 11:00N 40°39' W 074°06'0 0.4
2018-Jun-08 10:27N 40°39' W 074°06'0 0.0
2018-Jun-08 10:00N 40°39' W 074°06'1 1.5
2018-Jun-08 09:30N 40°39' W 074°05'0 0.1
2018-Jun-08 09:00N 40°39' W 074°05'0 0.0
2018-Jun-08 08:30N 40°39' W 074°05'0 0.0
2018-Jun-08 08:00N 40°39' W 074°05'0 0.0
2018-Jun-08 07:30N 40°39' W 074°05'0 0.0
2018-Jun-08 07:00N 40°39' W 074°05'0 0.0
2018-Jun-08 06:30N 40°39' W 074°06'0 0.0
2018-Jun-08 06:00N 40°39' W 074°06'0 0.0
2018-Jun-08 05:30N 40°39' W 074°06'0 0.0
2018-Jun-08 05:00N 40°39' W 074°06'0 0.0
2018-Jun-08 04:30N 40°39' W 074°06'0 0.0
2018-Jun-08 04:00N 40°39' W 074°06'0 0.0
2018-Jun-08 03:30N 40°39' W 074°06'0 0.1
2018-Jun-08 03:01N 40°39' W 074°05'1 1.5
2018-Jun-08 02:30N 40°39' W 074°06'3 5.5
2018-Jun-08 02:00N 40°40' W 074°03'3 5.2
2018-Jun-08 01:30N 40°41' W 074°00'0 0.0
2018-Jun-08 01:00N 40°41' W 074°00'0 0.0
2018-Jun-08 00:31N 40°41' W 074°00'0 0.1
2018-Jun-08 00:00N 40°41' W 074°00'2 3.5
2018-Jun-07 23:31N 40°40' W 074°01'1 1.2
2018-Jun-07 23:00N 40°40' W 074°00'0 0.1
2018-Jun-07 22:30N 40°40' W 074°00'1 2.8
2018-Jun-07 22:01N 40°41' W 074°00'0 0.0
2018-Jun-07 21:30N 40°41' W 074°00'0 0.0
2018-Jun-07 21:00N 40°41' W 074°00'0 0.0
2018-Jun-07 20:30N 40°41' W 074°00'0 0.0
2018-Jun-07 20:00N 40°41' W 074°00'0 0.0
2018-Jun-07 19:30N 40°41' W 074°00'0 0.0
2018-Jun-07 19:00N 40°41' W 074°00'0 0.1
2018-Jun-07 18:30N 40°41' W 074°00'2 3.1
2018-Jun-07 18:01N 40°40' W 074°01'0 0.2
2018-Jun-07 17:30N 40°40' W 074°00'0 0.0
2018-Jun-07 17:00N 40°40' W 074°00'0 0.0
2018-Jun-07 16:30N 40°40' W 074°00'0 0.0
2018-Jun-07 16:00N 40°40' W 074°00'0 0.0
2018-Jun-07 15:30N 40°40' W 074°00'0 0.0
2018-Jun-07 15:00N 40°40' W 074°00'0 0.0
2018-Jun-07 14:30N 40°40' W 074°00'0 0.0
2018-Jun-07 14:00N 40°40' W 074°00'0 0.0
2018-Jun-07 13:30N 40°40' W 074°00'0 0.5
2018-Jun-07 13:01N 40°40' W 074°00'0 0.5
2018-Jun-07 12:30N 40°40' W 074°00'0 0.0
2018-Jun-07 12:00N 40°40' W 074°00'0 0.0
2018-Jun-07 11:30N 40°40' W 074°00'0 0.0
2018-Jun-07 11:00N 40°40' W 074°00'0 0.0
2018-Jun-07 10:30N 40°40' W 074°00'0 0.0
2018-Jun-07 10:00N 40°40' W 074°00'0 0.0
2018-Jun-07 09:30N 40°40' W 074°00'0 0.0
2018-Jun-07 09:00N 40°40' W 074°00'2 3.8
2018-Jun-07 08:30N 40°41' W 074°03'0 0.0
2018-Jun-07 08:00N 40°41' W 074°03'2 3.6
2018-Jun-07 07:31N 40°40' W 074°01'0 0.7
2018-Jun-07 07:00N 40°40' W 074°01'4 7.5
2018-Jun-07 06:30N 40°39' W 074°06'2 4.6
2018-Jun-07 06:00N 40°40' W 074°09'1 2.3
2018-Jun-07 05:29N 40°41' W 074°09'2 4.1
2018-Jun-07 05:00N 40°39' W 074°09'4 8.3
2018-Jun-07 04:30N 40°39' W 074°03'3 5.4
2018-Jun-07 04:00N 40°40' W 074°00'0 0.0
2018-Jun-07 03:30N 40°40' W 074°00'0 0.0
2018-Jun-07 03:00N 40°40' W 074°00'0 0.0
2018-Jun-07 02:30N 40°40' W 074°00'0 0.0
2018-Jun-07 02:00N 40°40' W 074°00'0 0.0
2018-Jun-07 01:30N 40°40' W 074°00'0 0.0
2018-Jun-07 01:00N 40°40' W 074°00'0 0.0
2018-Jun-07 00:30N 40°40' W 074°00'0 0.0
2018-Jun-07 00:00N 40°40' W 074°00'0 0.0
2018-Jun-06 23:30N 40°40' W 074°00'0 0.0
2018-Jun-06 23:00N 40°40' W 074°00'0 0.0
2018-Jun-06 22:30N 40°40' W 074°00'0 0.0
2018-Jun-06 22:01N 40°40' W 074°00'4 7.4
2018-Jun-06 21:30N 40°39' W 074°05'0 1.0
2018-Jun-06 21:00N 40°39' W 074°05'2 4.8
2018-Jun-06 20:30N 40°40' W 074°03'1 1.7
2018-Jun-06 20:00N 40°40' W 074°02'0 0.0
2018-Jun-06 19:30N 40°40' W 074°02'0 0.0
2018-Jun-06 19:00N 40°40' W 074°02'  
Track history (hours):
 
Tides and Currents Weather Stations Pressure Air Temp Water Temp Dewpoint Dewpoint Depression Visibility Wind Speed Wind Dir Waves Ship Positions

Elizabeth Anne

Owner: Vane Line Bunkering, Inc., Philadelphia, PA. More information available from US FCC via Universal Licensing System and Coast Guard Vessel Documentation Center.

Last reported at 2018-Jun-16 18:59 UTC. Time now 2018-Jun-17 22:15 UTC.
Position N 40°47' W 073°60'.

; draft 5 m.

Type: Tug. MMSI: 369008000.

Date/timePositionNaut miles runAvg speedWind from/ knotsBaromVisibWave heightAir tempDewpointWater temp
2018-Jun-16 18:59N 40°47' W 073°60'3 6.9
2018-Jun-16 18:30N 40°44' W 074°01'4 7.5
2018-Jun-16 18:00N 40°40' W 074°03'4 7.2
2018-Jun-16 17:30N 40°39' W 074°07'4 7.2
2018-Jun-16 17:00N 40°38' W 074°12'0 0.0
2018-Jun-16 11:38N 40°38' W 074°12'1 7.3
2018-Jun-16 11:27N 40°39' W 074°10'4 8.8
2018-Jun-16 11:00N 40°39' W 074°05'3 6.9
2018-Jun-16 10:30N 40°40' W 074°00'0 0.0
2018-Jun-16 10:00N 40°40' W 074°00'0 0.0
2018-Jun-16 09:30N 40°40' W 074°00'0 0.0
2018-Jun-16 09:00N 40°40' W 074°00'0 0.0
2018-Jun-16 08:30N 40°40' W 074°00'0 0.0
2018-Jun-16 08:00N 40°40' W 074°00'0 0.0
2018-Jun-16 07:30N 40°40' W 074°00'0 0.0
2018-Jun-16 07:00N 40°40' W 074°00'0 0.0
2018-Jun-16 06:30N 40°40' W 074°00'0 0.0
2018-Jun-16 06:00N 40°40' W 074°00'0 0.0
2018-Jun-16 05:30N 40°40' W 074°00'0 0.0
2018-Jun-16 05:00N 40°40' W 074°00'0 0.0
2018-Jun-16 04:30N 40°40' W 074°00'0 0.0
2018-Jun-16 04:00N 40°40' W 074°00'0 0.0
2018-Jun-16 03:30N 40°40' W 074°00'0 0.0
2018-Jun-16 03:00N 40°40' W 074°00'0 0.0
2018-Jun-16 02:30N 40°40' W 074°00'0 0.0
2018-Jun-16 02:00N 40°40' W 074°00'0 0.0
2018-Jun-16 01:30N 40°40' W 074°00'0 0.0
2018-Jun-16 01:00N 40°40' W 074°00'0 0.0
2018-Jun-16 00:30N 40°40' W 074°00'0 0.0
2018-Jun-16 00:00N 40°40' W 074°00'0 0.0
2018-Jun-15 23:30N 40°40' W 074°00'0 0.0
2018-Jun-15 23:00N 40°40' W 074°00'0 0.0
2018-Jun-15 22:30N 40°40' W 074°00'0 0.0
2018-Jun-15 22:00N 40°40' W 074°00'0 0.0
2018-Jun-15 21:30N 40°40' W 074°00'0 0.0
2018-Jun-15 21:00N 40°40' W 074°00'0 0.0
2018-Jun-15 20:30N 40°40' W 074°00'0 0.0
2018-Jun-15 20:00N 40°40' W 074°00'0 0.0
2018-Jun-15 19:30N 40°40' W 074°00'0 0.0
2018-Jun-15 19:00N 40°40' W 074°00'0 0.0
2018-Jun-15 18:30N 40°40' W 074°00'0 0.0
2018-Jun-15 18:00N 40°40' W 074°00'0 0.0
2018-Jun-15 17:30N 40°40' W 074°00'0 0.0
2018-Jun-15 17:00N 40°40' W 074°00'0 0.0
2018-Jun-15 16:30N 40°40' W 074°00'0 0.4
2018-Jun-15 16:01N 40°40' W 074°00'1 1.7
2018-Jun-15 15:30N 40°40' W 074°01'1 2.3
2018-Jun-15 15:00N 40°40' W 074°03'1 1.9
2018-Jun-15 14:31N 40°40' W 074°03'1 1.9
2018-Jun-15 14:00N 40°40' W 074°04'0 0.0
2018-Jun-15 13:30N 40°40' W 074°04'0 0.0
2018-Jun-15 13:00N 40°40' W 074°04'0 0.0
2018-Jun-15 12:30N 40°40' W 074°04'0 0.0
2018-Jun-15 12:00N 40°40' W 074°04'0 0.0
2018-Jun-15 11:30N 40°40' W 074°04'0 0.3
2018-Jun-15 11:00N 40°40' W 074°04'0 0.0
2018-Jun-15 10:30N 40°40' W 074°04'0 0.0
2018-Jun-15 10:00N 40°40' W 074°04'0 0.0
2018-Jun-15 09:30N 40°40' W 074°04'0 0.0
2018-Jun-15 09:00N 40°40' W 074°04'0 0.0
2018-Jun-15 08:30N 40°40' W 074°04'0 0.0
2018-Jun-15 08:00N 40°40' W 074°04'0 0.0
2018-Jun-15 07:30N 40°40' W 074°04'0 0.0
2018-Jun-15 07:00N 40°40' W 074°04'0 0.0
2018-Jun-15 06:30N 40°40' W 074°04'0 0.0
2018-Jun-15 06:00N 40°40' W 074°04'0 0.0
2018-Jun-15 05:30N 40°40' W 074°04'0 0.0
2018-Jun-15 05:00N 40°40' W 074°04'0 0.0
2018-Jun-15 04:30N 40°40' W 074°04'0 0.0
2018-Jun-15 04:00N 40°40' W 074°04'0 0.0
2018-Jun-15 03:30N 40°40' W 074°04'0 0.0
2018-Jun-15 03:00N 40°40' W 074°04'0 0.0
2018-Jun-15 02:30N 40°40' W 074°04'0 0.0
2018-Jun-15 02:00N 40°40' W 074°04'0 0.0
2018-Jun-15 01:30N 40°40' W 074°04'0 0.0
2018-Jun-15 01:00N 40°40' W 074°04'0 0.0
2018-Jun-15 00:30N 40°40' W 074°04'0 0.0
2018-Jun-15 00:00N 40°40' W 074°04'0 0.0
2018-Jun-14 23:30N 40°40' W 074°04'0 0.0
2018-Jun-14 23:00N 40°40' W 074°04'0 0.0
2018-Jun-14 22:30N 40°40' W 074°04'0 0.0
2018-Jun-14 22:00N 40°40' W 074°04'0 0.0
2018-Jun-14 21:30N 40°40' W 074°04'0 0.0
2018-Jun-14 21:00N 40°40' W 074°04'0 0.0
2018-Jun-14 20:30N 40°40' W 074°04'0 0.0
2018-Jun-14 20:00N 40°40' W 074°04'0 0.0
2018-Jun-14 19:30N 40°40' W 074°04'0 0.0
2018-Jun-14 19:00N 40°40' W 074°04'0 0.0
2018-Jun-14 18:30N 40°40' W 074°04'0 0.0
2018-Jun-14 18:00N 40°40' W 074°04'0 0.0
2018-Jun-14 17:30N 40°40' W 074°04'0 0.0
2018-Jun-14 17:00N 40°40' W 074°04'0 0.0
2018-Jun-14 16:30N 40°40' W 074°04'0 0.0
2018-Jun-14 16:00N 40°40' W 074°04'0 0.0
2018-Jun-14 15:30N 40°40' W 074°04'0 0.0
2018-Jun-14 15:00N 40°40' W 074°04'0 0.3
2018-Jun-14 14:30N 40°40' W 074°04'0 0.0
2018-Jun-14 14:00N 40°40' W 074°04'0 0.0
2018-Jun-14 13:30N 40°40' W 074°04'0 0.0
2018-Jun-14 13:00N 40°40' W 074°04'0 0.0
2018-Jun-14 12:30N 40°40' W 074°04'0 0.0
2018-Jun-14 12:00N 40°40' W 074°04'0 0.1
2018-Jun-14 11:30N 40°40' W 074°04'0 0.2
2018-Jun-14 11:00N 40°40' W 074°04'0 0.2
2018-Jun-14 10:30N 40°40' W 074°04'1 1.7
2018-Jun-14 10:00N 40°39' W 074°05'2 3.2
2018-Jun-14 09:30N 40°39' W 074°07'1 1.3
2018-Jun-14 09:00N 40°39' W 074°06'0 0.0
2018-Jun-14 08:30N 40°39' W 074°06'0 0.0
2018-Jun-14 08:00N 40°39' W 074°06'0 0.0
2018-Jun-14 07:30N 40°39' W 074°06'0 0.0
2018-Jun-14 07:00N 40°39' W 074°06'0 0.3
2018-Jun-14 06:31N 40°39' W 074°06'1 1.1
2018-Jun-14 06:00N 40°39' W 074°05'0 0.8
2018-Jun-14 05:30N 40°39' W 074°06'0 0.0
2018-Jun-14 04:03N 40°39' W 074°06'0 0.0
2018-Jun-14 03:42N 40°39' W 074°06'0 0.0
2018-Jun-14 03:19N 40°39' W 074°06'0 0.0
2018-Jun-14 03:00N 40°39' W 074°06'0 0.0
2018-Jun-14 01:09N 40°39' W 074°06'0 0.0
2018-Jun-14 00:52N 40°39' W 074°06'1 1.9
2018-Jun-14 00:30N 40°39' W 074°07'0 0.8
2018-Jun-14 00:00N 40°39' W 074°07'2 3.9
2018-Jun-13 23:30N 40°40' W 074°08'1 1.5
2018-Jun-13 23:00N 40°41' W 074°09'0 0.1
2018-Jun-13 22:30N 40°41' W 074°09'0 0.0
2018-Jun-13 22:00N 40°41' W 074°09'0 0.0
2018-Jun-13 21:28N 40°41' W 074°09'0 0.0
2018-Jun-13 21:00N 40°41' W 074°09'0 0.0
2018-Jun-13 20:30N 40°41' W 074°09'0 0.0
2018-Jun-13 20:00N 40°41' W 074°09'0 0.0
2018-Jun-13 19:29N 40°41' W 074°09'0 0.0
2018-Jun-13 19:00N 40°41' W 074°09'0 0.0
2018-Jun-13 18:30N 40°41' W 074°09'0 0.0
2018-Jun-13 18:00N 40°41' W 074°09'1 2.1
2018-Jun-13 17:31N 40°40' W 074°08'3 4.3
2018-Jun-13 16:55N 40°39' W 074°11'0 0.0
2018-Jun-13 16:30N 40°39' W 074°11'3 5.1
2018-Jun-13 16:00N 40°39' W 074°08'1 2.4
2018-Jun-13 15:25N 40°39' W 074°06'0 1.1
2018-Jun-13 15:00N 40°39' W 074°05'0 0.8
2018-Jun-13 14:30N 40°39' W 074°06'0 0.0
2018-Jun-13 14:00N 40°39' W 074°06'1 1.6
2018-Jun-13 13:31N 40°39' W 074°05'1 0.9
2018-Jun-13 12:37N 40°39' W 074°06'0 1.4
2018-Jun-13 12:30N 40°39' W 074°06'4 8.5
2018-Jun-13 12:00N 40°40' W 074°00'0 0.3
2018-Jun-13 11:30N 40°40' W 074°01'0 0.0
2018-Jun-13 11:00N 40°40' W 074°00'0 0.1
2018-Jun-13 10:30N 40°40' W 074°00'0 0.0
2018-Jun-13 10:00N 40°40' W 074°00'0 0.0
2018-Jun-13 09:30N 40°40' W 074°00'0 0.0
2018-Jun-13 09:00N 40°40' W 074°00'0 0.0
2018-Jun-13 08:30N 40°40' W 074°00'0 0.0
2018-Jun-13 08:00N 40°40' W 074°00'0 0.0
2018-Jun-13 07:30N 40°40' W 074°00'0 0.0
2018-Jun-13 07:00N 40°40' W 074°00'0 0.0
2018-Jun-13 06:30N 40°40' W 074°00'0 0.0
2018-Jun-13 06:00N 40°40' W 074°00'1 2.9
2018-Jun-13 05:30N 40°41' W 074°00'0 0.1
2018-Jun-13 05:00N 40°41' W 074°00'0 0.0
2018-Jun-13 04:30N 40°41' W 074°00'0 0.0
2018-Jun-13 04:01N 40°41' W 074°00'1 2.7
2018-Jun-13 03:30N 40°40' W 074°00'0 0.0
2018-Jun-13 03:00N 40°40' W 074°00'0 0.0
2018-Jun-13 02:30N 40°40' W 074°00'0 0.0
2018-Jun-13 02:00N 40°40' W 074°00'0 0.0
2018-Jun-13 01:30N 40°40' W 074°00'0 0.0
2018-Jun-13 01:00N 40°40' W 074°00'0 0.0
2018-Jun-13 00:30N 40°40' W 074°00'2 3.7
2018-Jun-13 00:00N 40°39' W 074°02'3 6.6
2018-Jun-12 23:30N 40°39' W 074°06'0 0.1
2018-Jun-12 23:00N 40°39' W 074°07'1 2.5
2018-Jun-12 22:31N 40°39' W 074°05'4 7.5
2018-Jun-12 22:00N 40°40' W 074°00'0 0.0
2018-Jun-12 21:30N 40°40' W 074°00'0 0.0
2018-Jun-12 21:00N 40°40' W 074°00'0 0.0
2018-Jun-12 20:30N 40°40' W 074°00'0 0.0
2018-Jun-12 20:00N 40°40' W 074°00'0 0.0
2018-Jun-12 19:30N 40°40' W 074°00'0 0.0
2018-Jun-12 19:01N 40°40' W 074°00'4 7.8
2018-Jun-12 18:31N 40°39' W 074°05'1 2.3
2018-Jun-12 18:00N 40°39' W 074°07'2 3.3
2018-Jun-12 17:30N 40°39' W 074°04'4 7.5
2018-Jun-12 17:01N 40°41' W 074°00'0 0.8
2018-Jun-12 16:30N 40°41' W 074°01'1 2.3
2018-Jun-12 16:00N 40°40' W 074°00'0 0.0
2018-Jun-12 15:30N 40°40' W 074°00'0 0.0
2018-Jun-12 15:00N 40°40' W 074°00'0 0.0
2018-Jun-12 14:30N 40°40' W 074°00'0 0.0
2018-Jun-12 14:00N 40°40' W 074°00'0 0.1
2018-Jun-12 13:31N 40°40' W 074°01'3 6.9
2018-Jun-12 13:01N 40°40' W 074°05'0 0.1
2018-Jun-12 12:30N 40°40' W 074°05'0 0.0
2018-Jun-12 12:00N 40°40' W 074°05'0 0.0
2018-Jun-12 11:30N 40°40' W 074°05'0 0.0
2018-Jun-12 10:59N 40°40' W 074°05'0 0.0
2018-Jun-12 10:28N 40°40' W 074°05'0 0.0
2018-Jun-12 09:58N 40°40' W 074°05'0 0.0
2018-Jun-12 09:25N 40°40' W 074°05'0 0.3
2018-Jun-12 09:00N 40°40' W 074°05'1 1.3
2018-Jun-12 08:30N 40°40' W 074°04'0 0.0
2018-Jun-12 08:00N 40°40' W 074°04'1 2.1
2018-Jun-12 07:30N 40°39' W 074°05'2 3.5
2018-Jun-12 07:00N 40°39' W 074°07'0 1.0
2018-Jun-12 06:30N 40°39' W 074°06'2 2.9
2018-Jun-12 05:58N 40°39' W 074°04'1 1.4
2018-Jun-12 05:30N 40°39' W 074°04'1 2.1
2018-Jun-12 04:53N 40°40' W 074°03'0 0.0
2018-Jun-12 04:29N 40°40' W 074°03'0 0.0
2018-Jun-12 04:00N 40°40' W 074°03'2 4.1
2018-Jun-12 03:29N 40°40' W 074°00'0 0.0
2018-Jun-12 02:50N 40°40' W 074°00'0 0.0
2018-Jun-12 02:24N 40°40' W 074°00'0 0.0
2018-Jun-12 02:00N 40°40' W 074°00'1 1.2
2018-Jun-12 01:30N 40°40' W 074°01'2 3.5
2018-Jun-12 01:00N 40°41' W 074°00'2 4.3
2018-Jun-12 00:30N 40°41' W 074°03'0 0.0
2018-Jun-12 00:00N 40°41' W 074°03'0 0.0
2018-Jun-11 23:30N 40°41' W 074°03'0 0.0
2018-Jun-11 22:59N 40°41' W 074°03'2 4.7
2018-Jun-11 22:30N 40°41' W 074°00'1 2.8
2018-Jun-11 22:00N 40°40' W 074°00'0 0.8
2018-Jun-11 21:29N 40°40' W 074°01'4 7.2
2018-Jun-11 20:59N 40°39' W 074°05'3 5.8
2018-Jun-11 20:30N 40°39' W 074°09'2 4.0
2018-Jun-11 19:59N 40°41' W 074°09'0 0.0
2018-Jun-11 19:22N 40°41' W 074°09'0 0.0
2018-Jun-11 18:45N 40°41' W 074°09'0 0.0
2018-Jun-11 18:28N 40°41' W 074°09'0 0.0
2018-Jun-11 18:00N 40°41' W 074°09'0 0.0
2018-Jun-11 17:21N 40°41' W 074°09'1 2.3
2018-Jun-11 17:00N 40°40' W 074°08'2 3.8
2018-Jun-11 16:25N 40°39' W 074°06'3 6.4
2018-Jun-11 15:58N 40°40' W 074°02'2 3.5
2018-Jun-11 15:30N 40°41' W 074°01'0 0.0
2018-Jun-11 15:00N 40°41' W 074°01'0 0.0
2018-Jun-11 14:30N 40°41' W 074°01'0 0.0
2018-Jun-11 14:00N 40°41' W 074°01'0 0.0
2018-Jun-11 13:30N 40°41' W 074°01'0 0.0
2018-Jun-11 12:59N 40°41' W 074°01'0 0.0
2018-Jun-11 12:30N 40°41' W 074°01'0 0.8
2018-Jun-11 12:00N 40°41' W 074°01'1 1.9
2018-Jun-11 11:30N 40°40' W 074°00'0 0.0
2018-Jun-11 11:00N 40°40' W 074°00'0 0.0
2018-Jun-11 10:30N 40°40' W 074°00'0 0.0
2018-Jun-11 10:00N 40°40' W 074°00'0 0.0
2018-Jun-11 09:30N 40°40' W 074°00'0 0.1
2018-Jun-11 08:59N 40°40' W 074°00'0 0.0
2018-Jun-11 08:30N 40°40' W 074°00'0 0.0
2018-Jun-11 08:00N 40°40' W 074°00'1 1.2
2018-Jun-11 07:30N 40°40' W 074°01'1 2.9
2018-Jun-11 07:01N 40°40' W 074°03'1 2.6
2018-Jun-11 06:30N 40°40' W 074°05'0 0.0
2018-Jun-11 06:00N 40°40' W 074°05'3 5.2
2018-Jun-11 05:31N 40°40' W 074°01'1 1.5
2018-Jun-11 05:00N 40°40' W 074°00'0 0.0
2018-Jun-11 04:30N 40°40' W 074°00'0 0.0
2018-Jun-11 04:00N 40°40' W 074°00'0 0.0
2018-Jun-11 03:30N 40°40' W 074°00'0 0.0
2018-Jun-11 03:00N 40°40' W 074°00'0 0.0
2018-Jun-11 02:30N 40°40' W 074°00'0 0.0
2018-Jun-11 02:00N 40°40' W 074°00'0 0.0
2018-Jun-11 01:30N 40°40' W 074°00'0 0.0
2018-Jun-11 01:00N 40°40' W 074°00'0 0.0
2018-Jun-11 00:30N 40°40' W 074°00'0 0.0
2018-Jun-11 00:00N 40°40' W 074°00'0 0.0
2018-Jun-10 23:30N 40°40' W 074°00'0 0.0
2018-Jun-10 23:00N 40°40' W 074°00'0 0.0
2018-Jun-10 22:30N 40°40' W 074°00'0 0.0
2018-Jun-10 22:00N 40°40' W 074°00'0 0.0
2018-Jun-10 21:30N 40°40' W 074°00'0 0.0
2018-Jun-10 21:00N 40°40' W 074°00'1 3.0
2018-Jun-10 20:31N 40°41' W 074°00'0 0.2
2018-Jun-10 20:00N 40°41' W 074°00'4 7.3
2018-Jun-10 19:31N 40°39' W 074°04'1 2.6
2018-Jun-10 18:58N 40°39' W 074°06'2 4.9
2018-Jun-10 18:31N 40°40' W 074°03'0 0.1
2018-Jun-10 18:00N 40°40' W 074°03'1 1.8
2018-Jun-10 17:30N 40°40' W 074°03'1 2.9
2018-Jun-10 17:00N 40°41' W 074°01'0 0.0
2018-Jun-10 16:30N 40°41' W 074°01'0 0.0
2018-Jun-10 16:00N 40°41' W 074°01'0 0.0
2018-Jun-10 15:30N 40°41' W 074°01'0 0.0
2018-Jun-10 15:00N 40°41' W 074°01'0 0.0
2018-Jun-10 14:00N 40°41' W 074°01'0 0.0
2018-Jun-10 13:30N 40°41' W 074°01'0 0.0
2018-Jun-10 13:00N 40°41' W 074°01'0 0.0
2018-Jun-10 12:30N 40°41' W 074°01'0 0.0
2018-Jun-10 12:00N 40°41' W 074°01'0 0.0
2018-Jun-10 11:30N 40°41' W 074°01'0 0.2
2018-Jun-10 11:00N 40°41' W 074°01'2 3.8
2018-Jun-10 10:30N 40°40' W 074°03'1 2.1
2018-Jun-10 10:00N 40°40' W 074°04'0 0.0
2018-Jun-10 09:30N 40°40' W 074°04'0 0.0
2018-Jun-10 09:00N 40°40' W 074°04'0 0.0
2018-Jun-10 08:30N 40°40' W 074°04'0 0.0
2018-Jun-10 08:00N 40°40' W 074°04'0 0.0
2018-Jun-10 07:30N 40°40' W 074°04'0 0.0
2018-Jun-10 07:00N 40°40' W 074°04'0 0.0
2018-Jun-10 06:30N 40°40' W 074°04'0 0.0
2018-Jun-10 06:00N 40°40' W 074°04'0 0.0
2018-Jun-10 05:30N 40°40' W 074°04'0 0.0
2018-Jun-10 05:00N 40°40' W 074°04'0 0.0
2018-Jun-10 04:30N 40°40' W 074°04'0 0.0
2018-Jun-10 04:00N 40°40' W 074°04'1 1.3
2018-Jun-10 03:30N 40°39' W 074°04'2 3.6
2018-Jun-10 03:00N 40°39' W 074°07'1 1.2
2018-Jun-10 02:30N 40°39' W 074°06'0 0.0
2018-Jun-10 02:00N 40°39' W 074°06'0 0.0
2018-Jun-10 01:30N 40°39' W 074°06'0 0.0
2018-Jun-10 01:00N 40°39' W 074°06'0 0.0
2018-Jun-10 00:30N 40°39' W 074°06'0 0.0
2018-Jun-09 23:27N 40°39' W 074°06'0 0.0
2018-Jun-09 22:57N 40°39' W 074°06'0 0.0
2018-Jun-09 22:28N 40°39' W 074°06'0 0.0
2018-Jun-09 22:00N 40°39' W 074°06'0 0.0
2018-Jun-09 21:30N 40°39' W 074°06'1 1.3
2018-Jun-09 21:00N 40°39' W 074°07'1 1.9
2018-Jun-09 20:30N 40°39' W 074°05'1 2.6
2018-Jun-09 20:00N 40°40' W 074°04'0 0.0
2018-Jun-09 19:30N 40°40' W 074°04'0 0.0
2018-Jun-09 19:00N 40°40' W 074°04'0 0.0
2018-Jun-09 18:30N 40°40' W 074°04'0 0.0
2018-Jun-09 18:00N 40°40' W 074°04'0 0.0
2018-Jun-09 17:30N 40°40' W 074°04'0 0.0
2018-Jun-09 17:00N 40°40' W 074°04'0 0.2
2018-Jun-09 16:30N 40°40' W 074°04'0 0.0
2018-Jun-09 16:00N 40°40' W 074°04'0 0.0
2018-Jun-09 15:30N 40°40' W 074°04'0 0.0
2018-Jun-09 14:30N 40°40' W 074°04'0 0.0
2018-Jun-09 14:00N 40°40' W 074°04'0 0.0
2018-Jun-09 13:30N 40°40' W 074°04'0 0.0
2018-Jun-09 13:00N 40°40' W 074°04'0 0.0
2018-Jun-09 12:30N 40°40' W 074°04'0 0.0
2018-Jun-09 12:00N 40°40' W 074°04'1 2.0
2018-Jun-09 11:30N 40°40' W 074°03'0 0.4
2018-Jun-09 11:00N 40°40' W 074°03'0 0.1
2018-Jun-09 10:30N 40°40' W 074°03'0 0.1
2018-Jun-09 10:00N 40°40' W 074°03'0 0.2
2018-Jun-09 09:30N 40°41' W 074°03'0 0.0
2018-Jun-09 09:00N 40°41' W 074°03'0 0.0
2018-Jun-09 08:30N 40°41' W 074°03'0 0.1
2018-Jun-09 08:00N 40°40' W 074°03'3 5.7
2018-Jun-09 07:30N 40°39' W 074°06'0 0.2
2018-Jun-09 07:00N 40°39' W 074°06'2 3.9
2018-Jun-09 06:29N 40°39' W 074°09'2 4.0
2018-Jun-09 06:00N 40°41' W 074°10'0 0.0
2018-Jun-09 05:30N 40°41' W 074°10'0 0.0
2018-Jun-09 05:00N 40°41' W 074°10'0 0.0
2018-Jun-09 04:30N 40°41' W 074°10'0 0.2
2018-Jun-09 03:59N 40°41' W 074°09'1 1.8
2018-Jun-09 03:30N 40°41' W 074°09'0 0.1
2018-Jun-09 03:00N 40°41' W 074°09'0 0.0
2018-Jun-09 02:30N 40°41' W 074°09'0 0.4
2018-Jun-09 02:00N 40°40' W 074°08'3 5.2
2018-Jun-09 01:30N 40°39' W 074°05'0 0.6
2018-Jun-09 01:00N 40°39' W 074°05'3 6.1
2018-Jun-09 00:30N 40°39' W 074°09'2 3.0
2018-Jun-09 00:00N 40°40' W 074°08'0 0.2
2018-Jun-08 23:30N 40°40' W 074°08'1 2.9
2018-Jun-08 23:00N 40°39' W 074°09'3 5.3
2018-Jun-08 22:30N 40°39' W 074°05'0 0.0
2018-Jun-08 22:00N 40°39' W 074°05'0 0.0
2018-Jun-08 21:30N 40°39' W 074°05'0 0.0
2018-Jun-08 21:00N 40°39' W 074°05'0 0.0
2018-Jun-08 20:30N 40°39' W 074°05'1 1.5
2018-Jun-08 20:00N 40°39' W 074°06'2 3.8
2018-Jun-08 19:30N 40°39' W 074°04'3 5.6
2018-Jun-08 19:01N 40°40' W 074°01'0 0.1
2018-Jun-08 18:30N 40°40' W 074°00'0 0.6
2018-Jun-08 18:01N 40°40' W 074°00'2 4.3
2018-Jun-08 17:30N 40°40' W 074°03'0 0.6
2018-Jun-08 17:00N 40°40' W 074°03'1 1.7
2018-Jun-08 16:30N 40°40' W 074°04'0 0.0
2018-Jun-08 16:00N 40°40' W 074°04'0 0.0
2018-Jun-08 15:30N 40°40' W 074°04'0 0.0
2018-Jun-08 15:00N 40°40' W 074°04'0 0.0
2018-Jun-08 14:30N 40°40' W 074°04'0 0.0
2018-Jun-08 14:00N 40°40' W 074°04'0 0.0
2018-Jun-08 13:30N 40°40' W 074°04'0 0.0
2018-Jun-08 13:00N 40°40' W 074°04'0 0.0
2018-Jun-08 12:30N 40°40' W 074°04'0 0.0
2018-Jun-08 12:00N 40°40' W 074°04'0 0.0
2018-Jun-08 11:30N 40°40' W 074°04'2 3.6
2018-Jun-08 11:00N 40°39' W 074°06'0 0.4
2018-Jun-08 10:27N 40°39' W 074°06'0 0.0
2018-Jun-08 10:00N 40°39' W 074°06'1 1.5
2018-Jun-08 09:30N 40°39' W 074°05'0 0.1
2018-Jun-08 09:00N 40°39' W 074°05'0 0.0
2018-Jun-08 08:30N 40°39' W 074°05'0 0.0
2018-Jun-08 08:00N 40°39' W 074°05'0 0.0
2018-Jun-08 07:30N 40°39' W 074°05'0 0.0
2018-Jun-08 07:00N 40°39' W 074°05'0 0.0
2018-Jun-08 06:30N 40°39' W 074°06'0 0.0
2018-Jun-08 06:00N 40°39' W 074°06'0 0.0
2018-Jun-08 05:30N 40°39' W 074°06'0 0.0
2018-Jun-08 05:00N 40°39' W 074°06'0 0.0
2018-Jun-08 04:30N 40°39' W 074°06'0 0.0
2018-Jun-08 04:00N 40°39' W 074°06'0 0.0
2018-Jun-08 03:30N 40°39' W 074°06'0 0.1
2018-Jun-08 03:01N 40°39' W 074°05'1 1.5
2018-Jun-08 02:30N 40°39' W 074°06'3 5.5
2018-Jun-08 02:00N 40°40' W 074°03'3 5.2
2018-Jun-08 01:30N 40°41' W 074°00'0 0.0
2018-Jun-08 01:00N 40°41' W 074°00'0 0.0
2018-Jun-08 00:31N 40°41' W 074°00'0 0.1
2018-Jun-08 00:00N 40°41' W 074°00'2 3.5
2018-Jun-07 23:31N 40°40' W 074°01'1 1.2
2018-Jun-07 23:00N 40°40' W 074°00'0 0.1
2018-Jun-07 22:30N 40°40' W 074°00'1 2.8
2018-Jun-07 22:01N 40°41' W 074°00'0 0.0
2018-Jun-07 21:30N 40°41' W 074°00'0 0.0
2018-Jun-07 21:00N 40°41' W 074°00'0 0.0
2018-Jun-07 20:30N 40°41' W 074°00'0 0.0
2018-Jun-07 20:00N 40°41' W 074°00'0 0.0
2018-Jun-07 19:30N 40°41' W 074°00'0 0.0
2018-Jun-07 19:00N 40°41' W 074°00'0 0.1
2018-Jun-07 18:30N 40°41' W 074°00'2 3.1
2018-Jun-07 18:01N 40°40' W 074°01'0 0.2
2018-Jun-07 17:30N 40°40' W 074°00'0 0.0
2018-Jun-07 17:00N 40°40' W 074°00'0 0.0
2018-Jun-07 16:30N 40°40' W 074°00'0 0.0
2018-Jun-07 16:00N 40°40' W 074°00'0 0.0
2018-Jun-07 15:30N 40°40' W 074°00'0 0.0
2018-Jun-07 15:00N 40°40' W 074°00'0 0.0
2018-Jun-07 14:30N 40°40' W 074°00'0 0.0
2018-Jun-07 14:00N 40°40' W 074°00'0 0.0
2018-Jun-07 13:30N 40°40' W 074°00'0 0.5
2018-Jun-07 13:01N 40°40' W 074°00'0 0.5
2018-Jun-07 12:30N 40°40' W 074°00'0 0.0
2018-Jun-07 12:00N 40°40' W 074°00'0 0.0
2018-Jun-07 11:30N 40°40' W 074°00'0 0.0
2018-Jun-07 11:00N 40°40' W 074°00'0 0.0
2018-Jun-07 10:30N 40°40' W 074°00'0 0.0
2018-Jun-07 10:00N 40°40' W 074°00'0 0.0
2018-Jun-07 09:30N 40°40' W 074°00'0 0.0
2018-Jun-07 09:00N 40°40' W 074°00'2 3.8
2018-Jun-07 08:30N 40°41' W 074°03'0 0.0
2018-Jun-07 08:00N 40°41' W 074°03'2 3.6
2018-Jun-07 07:31N 40°40' W 074°01'0 0.7
2018-Jun-07 07:00N 40°40' W 074°01'4 7.5
2018-Jun-07 06:30N 40°39' W 074°06'2 4.6
2018-Jun-07 06:00N 40°40' W 074°09'1 2.3
2018-Jun-07 05:29N 40°41' W 074°09'2 4.1
2018-Jun-07 05:00N 40°39' W 074°09'4 8.3
2018-Jun-07 04:30N 40°39' W 074°03'3 5.4
2018-Jun-07 04:00N 40°40' W 074°00'0 0.0
2018-Jun-07 03:30N 40°40' W 074°00'0 0.0
2018-Jun-07 03:00N 40°40' W 074°00'0 0.0
2018-Jun-07 02:30N 40°40' W 074°00'0 0.0
2018-Jun-07 02:00N 40°40' W 074°00'0 0.0
2018-Jun-07 01:30N 40°40' W 074°00'0 0.0
2018-Jun-07 01:00N 40°40' W 074°00'0 0.0
2018-Jun-07 00:30N 40°40' W 074°00'0 0.0
2018-Jun-07 00:00N 40°40' W 074°00'0 0.0
2018-Jun-06 23:30N 40°40' W 074°00'0 0.0
2018-Jun-06 23:00N 40°40' W 074°00'0 0.0
2018-Jun-06 22:30N 40°40' W 074°00'0 0.0
2018-Jun-06 22:01N 40°40' W 074°00'4 7.4
2018-Jun-06 21:30N 40°39' W 074°05'0 1.0
2018-Jun-06 21:00N 40°39' W 074°05'2 4.8
2018-Jun-06 20:30N 40°40' W 074°03'1 1.7
2018-Jun-06 20:00N 40°40' W 074°02'0 0.0
2018-Jun-06 19:30N 40°40' W 074°02'0 0.0
2018-Jun-06 19:00N 40°40' W 074°02'  

Dump ship's entire track history